Hanjin Philadelphia — A8CN8 — position and weather

sailwx.info

Track history (hours):
 
Tides and Currents Weather Stations Pressure Air Temp Water Temp Dewpoint Dewpoint Depression Visibility Wind Speed Wind Dir Waves Ship Positions

Hanjin Philadelphia

Last reported at 2015-Feb-27 02:28 UTC. Time now 2015-Mar-02 00:58 UTC.
Position N 01°57' E 102°15'.

Length 282.1 m; beam 32.2 m; draft 13 m.

Type: Ship. MMSI: 636026894.

Date/timePositionNaut miles runAvg speedWind from/ knotsBaromVisibWave heightAir tempDewpointWater temp
2015-Feb-27 02:28N 01°57' E 102°15'1819.4
2015-Feb-27 01:33N 01°49' E 102°31'2120.0
2015-Feb-27 00:31N 01°40' E 102°50'61 9.8
2015-Feb-26 18:18N 01°16' E 103°46'0 0.0
2015-Feb-26 15:07N 01°16' E 103°46'0 0.0
2015-Feb-26 14:17N 01°16' E 103°46'0 0.0
2015-Feb-26 11:07N 01°16' E 103°46'0 0.0
2015-Feb-26 10:33N 01°16' E 103°46'0 0.0
2015-Feb-26 09:33N 01°16' E 103°46'0 0.0
2015-Feb-26 08:33N 01°16' E 103°46'0 0.0
2015-Feb-26 07:33N 01°16' E 103°46'0 0.0
2015-Feb-26 06:33N 01°16' E 103°46'0 0.0
2015-Feb-26 05:33N 01°16' E 103°46'0 0.0
2015-Feb-26 04:33N 01°16' E 103°46'0 0.0
2015-Feb-26 03:33N 01°16' E 103°46'0 0.0
2015-Feb-26 02:33N 01°16' E 103°46'0 0.0
2015-Feb-26 01:33N 01°16' E 103°46'2 1.9
2015-Feb-26 00:33N 01°15' E 103°47'7 7.1
2015-Feb-25 23:33N 01°14' E 103°54'6 6.4
2015-Feb-25 22:33N 01°16' E 103°60'7 6.9
2015-Feb-25 21:33N 01°17' E 104°07'9 6.2
2015-Feb-25 20:04N 01°18' E 104°16'  
2015-Feb-21 04:12N 21°44' E 114°20'1216.3
2015-Feb-21 03:28N 21°56' E 114°23'1412.3
2015-Feb-21 02:21N 22°07' E 114°15'1210.3
2015-Feb-21 01:11N 22°16' E 114°06'6 8.6
2015-Feb-21 00:30N 22°21' E 114°03'9 9.1
2015-Feb-20 23:33N 22°23' E 113°54'5 4.6
2015-Feb-20 22:33N 22°28' E 113°53'0 0.0
2015-Feb-20 21:28N 22°28' E 113°53'0 0.0
2015-Feb-20 20:29N 22°28' E 113°53'0 0.0
2015-Feb-20 19:29N 22°28' E 113°53'0 0.0
2015-Feb-20 18:28N 22°28' E 113°53'0 0.0
2015-Feb-20 17:28N 22°28' E 113°53'0 0.0
2015-Feb-20 16:33N 22°28' E 113°53'0 0.0
2015-Feb-20 15:33N 22°28' E 113°53'0 0.0
2015-Feb-20 14:33N 22°28' E 113°53'0 0.0
2015-Feb-20 13:28N 22°28' E 113°53'0 0.0
2015-Feb-20 12:31N 22°28' E 113°53'0 0.0
2015-Feb-20 11:31N 22°28' E 113°53'0 0.0
2015-Feb-20 10:33N 22°28' E 113°53'0 0.0
2015-Feb-20 09:32N 22°28' E 113°53'0 0.0
2015-Feb-20 08:32N 22°28' E 113°53'0 0.0
2015-Feb-20 07:33N 22°28' E 113°53'0 0.0
2015-Feb-20 06:32N 22°28' E 113°53'2 2.0
2015-Feb-20 05:33N 22°26' E 113°53'12 8.6
2015-Feb-20 04:09N 22°21' E 114°05'7 9.4
2015-Feb-20 03:24N 22°14' E 114°08'5 5.1
2015-Feb-20 02:26N 22°09' E 114°10'0 0.2
2015-Feb-20 01:15N 22°10' E 114°10'0 0.0
2015-Feb-20 00:18N 22°09' E 114°10'0 0.0
2015-Feb-19 23:30N 22°09' E 114°10'0 0.0
2015-Feb-19 22:33N 22°09' E 114°10'0 0.0
2015-Feb-19 21:21N 22°09' E 114°10'0 0.0
2015-Feb-19 20:30N 22°09' E 114°10'3 3.0
2015-Feb-19 19:33N 22°09' E 114°13'5 4.7
2015-Feb-19 18:30N 22°06' E 114°17'0 0.0
2015-Feb-19 13:21N 22°06' E 114°17'0 0.0
2015-Feb-19 12:15N 22°06' E 114°17'0 0.0
2015-Feb-19 11:09N 22°06' E 114°17'0 0.0
2015-Feb-19 10:27N 22°06' E 114°17'0 0.0
2015-Feb-19 09:06N 22°06' E 114°17'0 0.0
2015-Feb-19 08:27N 22°06' E 114°17'0 0.0
2015-Feb-19 07:33N 22°06' E 114°17'0 0.0
2015-Feb-19 06:30N 22°06' E 114°17'0 0.0
2015-Feb-19 05:21N 22°06' E 114°17'0 0.0
2015-Feb-19 04:30N 22°06' E 114°17'0 0.0
2015-Feb-19 03:32N 22°06' E 114°17'14 7.1
2015-Feb-19 01:30N 22°16' E 114°06'1010.7
2015-Feb-19 00:33N 22°21' E 113°57'7 7.3
2015-Feb-18 23:33N 22°27' E 113°53'0 0.4
2015-Feb-18 22:29N 22°28' E 113°53'0 0.0
2015-Feb-18 21:23N 22°28' E 113°53'0 0.0
2015-Feb-18 20:29N 22°28' E 113°53'0 0.0
2015-Feb-18 19:29N 22°28' E 113°53'0 0.0
2015-Feb-18 18:29N 22°28' E 113°53'0 0.0
2015-Feb-18 17:29N 22°28' E 113°53'0 0.0
2015-Feb-18 16:29N 22°28' E 113°53'0 0.0
2015-Feb-18 15:29N 22°28' E 113°53'5 5.1
2015-Feb-18 14:33N 22°23' E 113°54'10 9.0
2015-Feb-18 13:27N 22°21' E 114°05'1111.5
2015-Feb-18 12:29N 22°12' E 114°11'6 6.9
2015-Feb-18 11:33N 22°06' E 114°12'0 0.1
2015-Feb-18 08:30N 22°05' E 114°12'0 0.0
2015-Feb-18 07:33N 22°05' E 114°12'0 0.0
2015-Feb-18 05:30N 22°05' E 114°12'0 0.0
2015-Feb-18 02:11N 22°05' E 114°12'0 0.0
2015-Feb-17 20:04N 22°05' E 114°12'0 0.0
2015-Feb-17 19:18N 22°05' E 114°12'0 0.0
2015-Feb-17 17:12N 22°05' E 114°12'0 0.2
2015-Feb-17 16:25N 22°05' E 114°12'9 9.3
2015-Feb-17 15:26N 22°08' E 114°03'1011.2
2015-Feb-17 14:33N 22°05' E 113°52'1212.1
2015-Feb-17 13:33N 22°17' E 113°48'  
Track history (hours):
 
Tides and Currents Weather Stations Pressure Air Temp Water Temp Dewpoint Dewpoint Depression Visibility Wind Speed Wind Dir Waves Ship Positions

Hanjin Philadelphia

Last reported at 2015-Feb-27 02:28 UTC. Time now 2015-Mar-02 00:58 UTC.
Position N 01°57' E 102°15'.

Length 282.1 m; beam 32.2 m; draft 13 m.

Type: Ship. MMSI: 636026894.

Date/timePositionNaut miles runAvg speedWind from/ knotsBaromVisibWave heightAir tempDewpointWater temp
2015-Feb-27 02:28N 01°57' E 102°15'1819.4
2015-Feb-27 01:33N 01°49' E 102°31'2120.0
2015-Feb-27 00:31N 01°40' E 102°50'61 9.8
2015-Feb-26 18:18N 01°16' E 103°46'0 0.0
2015-Feb-26 15:07N 01°16' E 103°46'0 0.0
2015-Feb-26 14:17N 01°16' E 103°46'0 0.0
2015-Feb-26 11:07N 01°16' E 103°46'0 0.0
2015-Feb-26 10:33N 01°16' E 103°46'0 0.0
2015-Feb-26 09:33N 01°16' E 103°46'0 0.0
2015-Feb-26 08:33N 01°16' E 103°46'0 0.0
2015-Feb-26 07:33N 01°16' E 103°46'0 0.0
2015-Feb-26 06:33N 01°16' E 103°46'0 0.0
2015-Feb-26 05:33N 01°16' E 103°46'0 0.0
2015-Feb-26 04:33N 01°16' E 103°46'0 0.0
2015-Feb-26 03:33N 01°16' E 103°46'0 0.0
2015-Feb-26 02:33N 01°16' E 103°46'0 0.0
2015-Feb-26 01:33N 01°16' E 103°46'2 1.9
2015-Feb-26 00:33N 01°15' E 103°47'7 7.1
2015-Feb-25 23:33N 01°14' E 103°54'6 6.4
2015-Feb-25 22:33N 01°16' E 103°60'7 6.9
2015-Feb-25 21:33N 01°17' E 104°07'9 6.2
2015-Feb-25 20:04N 01°18' E 104°16'  
2015-Feb-21 04:12N 21°44' E 114°20'1216.3
2015-Feb-21 03:28N 21°56' E 114°23'1412.3
2015-Feb-21 02:21N 22°07' E 114°15'1210.3
2015-Feb-21 01:11N 22°16' E 114°06'6 8.6
2015-Feb-21 00:30N 22°21' E 114°03'9 9.1
2015-Feb-20 23:33N 22°23' E 113°54'5 4.6
2015-Feb-20 22:33N 22°28' E 113°53'0 0.0
2015-Feb-20 21:28N 22°28' E 113°53'0 0.0
2015-Feb-20 20:29N 22°28' E 113°53'0 0.0
2015-Feb-20 19:29N 22°28' E 113°53'0 0.0
2015-Feb-20 18:28N 22°28' E 113°53'0 0.0
2015-Feb-20 17:28N 22°28' E 113°53'0 0.0
2015-Feb-20 16:33N 22°28' E 113°53'0 0.0
2015-Feb-20 15:33N 22°28' E 113°53'0 0.0
2015-Feb-20 14:33N 22°28' E 113°53'0 0.0
2015-Feb-20 13:28N 22°28' E 113°53'0 0.0
2015-Feb-20 12:31N 22°28' E 113°53'0 0.0
2015-Feb-20 11:31N 22°28' E 113°53'0 0.0
2015-Feb-20 10:33N 22°28' E 113°53'0 0.0
2015-Feb-20 09:32N 22°28' E 113°53'0 0.0
2015-Feb-20 08:32N 22°28' E 113°53'0 0.0
2015-Feb-20 07:33N 22°28' E 113°53'0 0.0
2015-Feb-20 06:32N 22°28' E 113°53'2 2.0
2015-Feb-20 05:33N 22°26' E 113°53'12 8.6
2015-Feb-20 04:09N 22°21' E 114°05'7 9.4
2015-Feb-20 03:24N 22°14' E 114°08'5 5.1
2015-Feb-20 02:26N 22°09' E 114°10'0 0.2
2015-Feb-20 01:15N 22°10' E 114°10'0 0.0
2015-Feb-20 00:18N 22°09' E 114°10'0 0.0
2015-Feb-19 23:30N 22°09' E 114°10'0 0.0
2015-Feb-19 22:33N 22°09' E 114°10'0 0.0
2015-Feb-19 21:21N 22°09' E 114°10'0 0.0
2015-Feb-19 20:30N 22°09' E 114°10'3 3.0
2015-Feb-19 19:33N 22°09' E 114°13'5 4.7
2015-Feb-19 18:30N 22°06' E 114°17'0 0.0
2015-Feb-19 13:21N 22°06' E 114°17'0 0.0
2015-Feb-19 12:15N 22°06' E 114°17'0 0.0
2015-Feb-19 11:09N 22°06' E 114°17'0 0.0
2015-Feb-19 10:27N 22°06' E 114°17'0 0.0
2015-Feb-19 09:06N 22°06' E 114°17'0 0.0
2015-Feb-19 08:27N 22°06' E 114°17'0 0.0
2015-Feb-19 07:33N 22°06' E 114°17'0 0.0
2015-Feb-19 06:30N 22°06' E 114°17'0 0.0
2015-Feb-19 05:21N 22°06' E 114°17'0 0.0
2015-Feb-19 04:30N 22°06' E 114°17'0 0.0
2015-Feb-19 03:32N 22°06' E 114°17'14 7.1
2015-Feb-19 01:30N 22°16' E 114°06'1010.7
2015-Feb-19 00:33N 22°21' E 113°57'7 7.3
2015-Feb-18 23:33N 22°27' E 113°53'0 0.4
2015-Feb-18 22:29N 22°28' E 113°53'0 0.0
2015-Feb-18 21:23N 22°28' E 113°53'0 0.0
2015-Feb-18 20:29N 22°28' E 113°53'0 0.0
2015-Feb-18 19:29N 22°28' E 113°53'0 0.0
2015-Feb-18 18:29N 22°28' E 113°53'0 0.0
2015-Feb-18 17:29N 22°28' E 113°53'0 0.0
2015-Feb-18 16:29N 22°28' E 113°53'0 0.0
2015-Feb-18 15:29N 22°28' E 113°53'5 5.1
2015-Feb-18 14:33N 22°23' E 113°54'10 9.0
2015-Feb-18 13:27N 22°21' E 114°05'1111.5
2015-Feb-18 12:29N 22°12' E 114°11'6 6.9
2015-Feb-18 11:33N 22°06' E 114°12'0 0.1
2015-Feb-18 08:30N 22°05' E 114°12'0 0.0
2015-Feb-18 07:33N 22°05' E 114°12'0 0.0
2015-Feb-18 05:30N 22°05' E 114°12'0 0.0
2015-Feb-18 02:11N 22°05' E 114°12'0 0.0
2015-Feb-17 20:04N 22°05' E 114°12'0 0.0
2015-Feb-17 19:18N 22°05' E 114°12'0 0.0
2015-Feb-17 17:12N 22°05' E 114°12'0 0.2
2015-Feb-17 16:25N 22°05' E 114°12'9 9.3
2015-Feb-17 15:26N 22°08' E 114°03'1011.2
2015-Feb-17 14:33N 22°05' E 113°52'1212.1
2015-Feb-17 13:33N 22°17' E 113°48'  

Dump ship's entire track history